LDPL/PUY METAR and TAF weather

Enter ICAO airport designator
Station Type Date Time Source
LDPL METAR 2021/09/27 06:00 UTC NOAA

LDPL 270600Z 08005KT 9999 FEW012 SCT016 BKN056 18/17 Q1017 NOSIG


Station Type Date Time Source
LDPL Decoded METAR 2021/09/27 06:00 UTC NOAA

Pula Aerodrome, Croatia (LDPL) 45-54N 013-55E 63M
Sep 27, 2021 - 02:00 AM EDT / 2021.09.27 0600 UTC
Wind: from the E (080 degrees) at 6 MPH (5 KT):0
Visibility: greater than 7 mile(s):0
Sky conditions: mostly cloudy
Temperature: 64 F (18 C)
Dew Point: 62 F (17 C)
Relative Humidity: 93%
Pressure (altimeter): 30.03 in. Hg (1017 hPa)
ob: LDPL 270600Z 08005KT 9999 FEW012 SCT016 BKN056 18/17 Q1017 NOSIG
cycle: 6

Station Type Date Time Source
LDPL TAF 2021/09/27 06:27 UTC NOAA

TAF LDPL 270525Z 2706/2806 VRB02KT 9999 SCT015 TX23/2713Z TN15/2804Z PROB40
TEMPO 2706/2712 09007KT BKN010 PROB30
TEMPO 2706/2711 -TSRA FEW030CB BKN040 PROB30
TEMPO 2712/2715 24007KT PROB30
TEMPO 2802/2805 4000 BR MIFG

Example: see airport list